createdAt,value
2018-10-06T00:00:09.293Z,20.53
2018-10-06T00:02:38.225Z,17.27
2018-10-06T00:05:06.927Z,17.27
2018-10-06T00:07:36.610Z,17.63
2018-10-06T00:10:05.492Z,18.50
2018-10-06T00:12:35.226Z,17.70
2018-10-06T00:15:07.887Z,17.07
2018-10-06T00:17:36.408Z,18.87
2018-10-06T00:20:05.601Z,19.00
2018-10-06T00:22:34.867Z,19.40
2018-10-06T00:25:03.603Z,19.40
2018-10-06T00:27:33.652Z,17.37
2018-10-06T00:30:02.848Z,19.07
2018-10-06T00:32:32.212Z,20.40
2018-10-06T00:35:01.107Z,18.37
2018-10-06T00:37:30.043Z,17.90
2018-10-06T00:39:59.753Z,18.40
2018-10-06T00:42:28.347Z,19.93
2018-10-06T00:44:57.643Z,20.73
2018-10-06T00:47:26.230Z,19.97
2018-10-06T00:49:55.188Z,20.80
2018-10-06T00:52:24.210Z,18.70
2018-10-06T00:54:53.352Z,21.40
2018-10-06T00:57:22.120Z,17.57
2018-10-06T00:59:51.157Z,19.37
2018-10-06T01:02:20.280Z,19.33
2018-10-06T01:04:48.996Z,21.23
2018-10-06T01:07:18.526Z,20.07
2018-10-06T01:09:47.446Z,18.43
2018-10-06T01:12:16.346Z,21.50
2018-10-06T01:14:46.108Z,18.83
2018-10-06T01:17:15.176Z,19.20
2018-10-06T01:19:44.124Z,17.70
2018-10-06T01:22:12.814Z,18.47
2018-10-06T01:24:41.590Z,18.77
2018-10-06T01:27:10.547Z,18.43
2018-10-06T01:29:39.252Z,18.40
2018-10-06T01:32:08.539Z,22.20
2018-10-06T01:34:37.433Z,19.32
2018-10-06T01:37:06.535Z,19.40
2018-10-06T01:39:35.885Z,21.23
2018-10-06T01:42:04.843Z,18.17
2018-10-06T01:44:34.773Z,17.97
2018-10-06T01:47:04.438Z,19.60
2018-10-06T01:49:33.419Z,19.27
2018-10-06T01:52:02.569Z,17.87
2018-10-06T01:54:32.351Z,18.20
2018-10-06T01:57:01.364Z,17.93
2018-10-06T01:59:30.147Z,17.00
2018-10-06T02:01:59.543Z,17.47
2018-10-06T02:04:29.451Z,17.73
2018-10-06T02:06:58.891Z,18.27
2018-10-06T02:09:29.600Z,17.67
2018-10-06T02:11:58.995Z,18.03
2018-10-06T02:14:28.412Z,17.60
2018-10-06T02:16:57.142Z,20.43
2018-10-06T02:19:25.936Z,16.57
2018-10-06T02:21:54.582Z,19.77
2018-10-06T02:24:24.448Z,20.53
2018-10-06T02:26:53.702Z,19.13
2018-10-06T02:29:22.530Z,17.37
2018-10-06T02:31:51.446Z,18.90
2018-10-06T02:34:20.322Z,20.83
2018-10-06T02:36:49.430Z,21.00
2018-10-06T02:39:18.141Z,17.83
2018-10-06T02:41:47.483Z,19.87
2018-10-06T02:44:16.834Z,19.93
2018-10-06T02:46:45.431Z,18.30
2018-10-06T02:49:14.886Z,17.57
2018-10-06T02:51:43.682Z,16.40
2018-10-06T02:54:12.726Z,17.70
2018-10-06T02:56:41.540Z,21.73
2018-10-06T02:59:10.336Z,19.70
2018-10-06T03:01:39.346Z,21.90
2018-10-06T03:04:09.000Z,19.07
2018-10-06T03:06:37.938Z,19.67
2018-10-06T03:09:08.643Z,19.97
2018-10-06T03:11:37.614Z,20.33
2018-10-06T03:14:06.999Z,23.70
2018-10-06T03:16:35.871Z,20.65
2018-10-06T03:19:05.586Z,21.30
2018-10-06T03:21:34.471Z,20.87
2018-10-06T03:24:03.464Z,19.63
2018-10-06T03:26:32.562Z,19.47
2018-10-06T03:29:01.659Z,20.53
2018-10-06T03:31:30.460Z,19.07
2018-10-06T03:33:59.385Z,20.23
2018-10-06T03:36:28.006Z,19.03
2018-10-06T03:38:57.471Z,18.23
2018-10-06T03:41:26.871Z,21.63
2018-10-06T03:43:56.049Z,20.10
2018-10-06T03:46:25.109Z,20.20
2018-10-06T03:48:53.690Z,19.63
2018-10-06T03:51:22.541Z,21.63
2018-10-06T03:53:51.206Z,19.63
2018-10-06T03:56:20.525Z,20.10
2018-10-06T03:58:49.897Z,19.57
2018-10-06T04:01:19.304Z,18.83
2018-10-06T04:03:47.805Z,20.53
2018-10-06T04:06:16.941Z,20.87
2018-10-06T04:08:45.983Z,20.20
2018-10-06T04:11:15.011Z,19.77
2018-10-06T04:13:44.399Z,18.27
2018-10-06T04:16:13.449Z,18.10
2018-10-06T04:18:41.908Z,18.90
2018-10-06T04:21:10.932Z,20.67
2018-10-06T04:23:39.694Z,19.73
2018-10-06T04:26:08.593Z,21.33
2018-10-06T04:28:37.621Z,22.13
2018-10-06T04:31:06.926Z,20.93
2018-10-06T04:33:36.428Z,19.33
2018-10-06T04:36:05.386Z,20.60
2018-10-06T04:38:35.884Z,21.27
2018-10-06T04:41:04.672Z,21.83
2018-10-06T04:43:33.318Z,21.77
2018-10-06T04:46:01.961Z,22.07
2018-10-06T04:48:30.662Z,20.23
2018-10-06T04:50:59.647Z,19.70
2018-10-06T04:53:28.595Z,20.77
2018-10-06T04:55:57.332Z,19.67
2018-10-06T04:58:26.092Z,22.67
2018-10-06T05:00:55.006Z,21.67
2018-10-06T05:03:25.474Z,20.87
2018-10-06T05:05:54.642Z,20.27
2018-10-06T05:08:24.821Z,22.20
2018-10-06T05:10:53.982Z,19.87
2018-10-06T05:13:23.291Z,19.17
2018-10-06T05:15:53.088Z,19.60
2018-10-06T05:18:21.795Z,19.83
2018-10-06T05:20:50.584Z,20.93
2018-10-06T05:23:19.375Z,20.93
2018-10-06T05:25:48.162Z,20.87
2018-10-06T05:28:17.283Z,19.23
2018-10-06T05:30:47.014Z,23.80
2018-10-06T05:33:16.288Z,21.33
2018-10-06T05:35:45.466Z,23.30
2018-10-06T05:38:15.122Z,20.97
2018-10-06T05:40:46.364Z,22.63
2018-10-06T05:43:19.414Z,21.60
2018-10-06T05:45:49.955Z,19.80
2018-10-06T05:48:24.320Z,21.03
2018-10-06T05:50:57.034Z,19.53
2018-10-06T05:53:32.757Z,21.57
2018-10-06T05:56:04.123Z,22.40
2018-10-06T05:58:38.045Z,22.33
2018-10-06T06:01:14.751Z,20.87
2018-10-06T06:03:43.799Z,22.47
2018-10-06T06:06:15.132Z,19.40
2018-10-06T06:08:48.203Z,19.47
2018-10-06T06:11:21.782Z,21.27
2018-10-06T06:13:50.832Z,19.33
2018-10-06T06:16:19.942Z,22.17
2018-10-06T06:18:49.072Z,25.37
2018-10-06T06:21:20.578Z,22.50
2018-10-06T06:23:50.095Z,22.37
2018-10-06T06:26:21.252Z,24.67
2018-10-06T06:28:50.385Z,23.10
2018-10-06T06:31:19.447Z,21.80
2018-10-06T06:33:48.200Z,20.97
2018-10-06T06:36:17.445Z,20.43
2018-10-06T06:38:56.438Z,19.90
2018-10-06T06:41:26.566Z,20.23
2018-10-06T06:43:56.147Z,20.30
2018-10-06T06:46:26.193Z,20.13
2018-10-06T06:48:56.247Z,21.83
2018-10-06T06:51:28.361Z,20.60
2018-10-06T06:53:58.050Z,19.97
2018-10-06T06:56:30.669Z,21.70
2018-10-06T06:59:04.952Z,20.70
2018-10-06T07:01:34.418Z,20.30
2018-10-06T07:04:05.088Z,21.00
2018-10-06T07:06:36.028Z,21.02
2018-10-06T07:09:06.648Z,23.03
2018-10-06T07:11:45.704Z,19.53
2018-10-06T07:14:14.534Z,19.60
2018-10-06T07:16:44.794Z,21.80
2018-10-06T07:19:19.276Z,25.10
2018-10-06T07:21:48.162Z,21.47
2018-10-06T07:24:17.640Z,22.90
2018-10-06T07:26:46.826Z,21.30
2018-10-06T07:29:18.112Z,21.80
2018-10-06T07:31:53.278Z,22.23
2018-10-06T07:34:26.240Z,20.70
2018-10-06T07:36:59.153Z,19.27
2018-10-06T07:39:37.973Z,20.00
2018-10-06T07:42:09.051Z,18.57
2018-10-06T07:44:39.188Z,18.90
2018-10-06T07:47:09.438Z,22.67
2018-10-06T07:49:43.368Z,18.43
2018-10-06T07:52:17.308Z,19.63
2018-10-06T07:54:47.227Z,20.83
2018-10-06T07:57:22.820Z,21.33
2018-10-06T07:59:57.237Z,20.77
2018-10-06T08:02:29.198Z,19.67
2018-10-06T08:04:58.758Z,22.07
2018-10-06T08:07:34.511Z,22.30
2018-10-06T08:10:07.847Z,19.47
2018-10-06T08:12:39.087Z,25.50
2018-10-06T08:15:12.461Z,19.37
2018-10-06T08:17:45.303Z,22.87
2018-10-06T08:20:16.034Z,21.27
2018-10-06T08:22:45.537Z,20.10
2018-10-06T08:25:15.090Z,20.63
2018-10-06T08:27:44.302Z,20.10
2018-10-06T08:30:15.481Z,24.27
2018-10-06T08:32:44.955Z,19.77
2018-10-06T08:35:14.501Z,21.52
2018-10-06T08:37:43.774Z,18.27
2018-10-06T08:40:15.524Z,21.77
2018-10-06T08:42:44.817Z,20.13
2018-10-06T08:45:13.842Z,20.40
2018-10-06T08:47:47.841Z,21.60
2018-10-06T08:50:18.300Z,21.73
2018-10-06T08:52:47.970Z,23.37
2018-10-06T08:55:23.166Z,23.67
2018-10-06T08:57:58.047Z,27.07
2018-10-06T09:00:28.502Z,24.00
2018-10-06T09:02:57.523Z,24.73
2018-10-06T09:05:28.240Z,25.97
2018-10-06T09:07:59.877Z,28.77
2018-10-06T09:10:28.870Z,27.57
2018-10-06T09:12:59.986Z,28.27
2018-10-06T09:15:29.660Z,25.27
2018-10-06T09:18:05.504Z,25.30
2018-10-06T09:20:41.566Z,30.43
2018-10-06T09:23:15.214Z,29.92
2018-10-06T09:25:45.441Z,32.33
2018-10-06T09:28:22.362Z,27.07
2018-10-06T09:30:52.553Z,28.07
2018-10-06T09:33:21.511Z,30.13
2018-10-06T09:35:56.678Z,29.07
2018-10-06T09:38:25.632Z,28.37
2018-10-06T09:40:55.974Z,24.23
2018-10-06T09:43:27.243Z,30.77
2018-10-06T09:45:55.850Z,32.13
2018-10-06T09:48:25.216Z,29.43
2018-10-06T09:50:54.404Z,27.37
2018-10-06T09:53:23.986Z,26.80
2018-10-06T09:55:57.773Z,26.53
2018-10-06T09:58:27.493Z,30.10
2018-10-06T10:01:02.139Z,27.17
2018-10-06T10:03:36.577Z,26.57
2018-10-06T10:06:06.086Z,25.93
2018-10-06T10:08:36.122Z,23.23
2018-10-06T10:11:05.320Z,26.07
2018-10-06T10:13:37.883Z,24.77
2018-10-06T10:16:07.223Z,23.77
2018-10-06T10:18:36.728Z,25.40
2018-10-06T10:21:05.862Z,27.57
2018-10-06T10:23:35.906Z,21.87
2018-10-06T10:26:04.877Z,22.47
2018-10-06T10:28:40.593Z,21.23
2018-10-06T10:31:11.244Z,21.23
2018-10-06T10:33:44.087Z,21.83
2018-10-06T10:36:13.265Z,21.70
2018-10-06T10:38:43.099Z,18.53
2018-10-06T10:41:19.373Z,21.63
2018-10-06T10:43:50.060Z,19.60
2018-10-06T10:46:19.731Z,19.23
2018-10-06T10:48:48.555Z,18.80
2018-10-06T10:51:19.199Z,17.23
2018-10-06T10:53:48.863Z,20.33
2018-10-06T10:56:20.791Z,21.70
2018-10-06T10:58:50.795Z,20.33
2018-10-06T11:01:24.907Z,17.73
2018-10-06T11:04:02.556Z,17.17
2018-10-06T11:06:33.908Z,23.37
2018-10-06T11:09:03.756Z,21.93
2018-10-06T11:11:32.649Z,19.97
2018-10-06T11:14:01.621Z,20.97
2018-10-06T11:16:34.619Z,21.05
2018-10-06T11:19:04.025Z,22.70
2018-10-06T11:21:34.936Z,22.50
2018-10-06T11:24:04.319Z,24.00
2018-10-06T11:26:34.978Z,21.60
2018-10-06T11:29:03.828Z,17.83
2018-10-06T11:31:32.734Z,17.50
2018-10-06T11:34:08.244Z,17.90
2018-10-06T11:36:37.872Z,20.63
2018-10-06T11:39:12.889Z,19.70
2018-10-06T11:41:43.560Z,19.47
2018-10-06T11:44:13.840Z,20.83
2018-10-06T11:46:48.299Z,18.83
2018-10-06T11:49:19.384Z,21.17
2018-10-06T11:51:48.165Z,18.17
2018-10-06T11:54:24.256Z,17.23
2018-10-06T11:56:54.379Z,18.07
2018-10-06T11:59:27.159Z,20.53
2018-10-06T12:01:55.936Z,19.60
2018-10-06T12:04:25.939Z,19.32
2018-10-06T12:07:08.337Z,16.17
2018-10-06T12:09:38.359Z,14.07
2018-10-06T12:12:09.283Z,13.90
2018-10-06T12:14:40.127Z,13.93
2018-10-06T12:17:10.889Z,13.97
2018-10-06T12:19:39.963Z,12.23
2018-10-06T12:22:08.726Z,11.17
2018-10-06T12:24:37.945Z,12.13
2018-10-06T12:27:07.046Z,12.47
2018-10-06T12:29:36.729Z,12.40
2018-10-06T12:32:05.483Z,11.67
2018-10-06T12:34:37.492Z,12.20
2018-10-06T12:37:08.832Z,11.43
2018-10-06T12:39:38.105Z,14.57
2018-10-06T12:42:13.453Z,12.17
2018-10-06T12:44:46.934Z,13.83
2018-10-06T12:47:17.167Z,15.37
2018-10-06T12:49:46.043Z,15.20
2018-10-06T12:52:15.729Z,14.30
2018-10-06T12:54:45.147Z,14.13
2018-10-06T12:57:14.548Z,15.60
2018-10-06T12:59:43.477Z,14.40
2018-10-06T13:02:12.835Z,12.30
2018-10-06T13:04:41.661Z,14.77
2018-10-06T13:07:16.351Z,13.20
2018-10-06T13:09:46.117Z,14.83
2018-10-06T13:12:15.165Z,15.73
2018-10-06T13:14:44.341Z,17.20
2018-10-06T13:17:13.941Z,12.97
2018-10-06T13:19:42.988Z,14.63
2018-10-06T13:22:13.564Z,21.40
2018-10-06T13:24:43.202Z,13.25
2018-10-06T13:27:12.376Z,19.00
2018-10-06T13:29:47.336Z,16.53
2018-10-06T13:32:16.040Z,13.67
2018-10-06T13:34:49.620Z,16.83
2018-10-06T13:37:23.954Z,18.97
2018-10-06T13:39:52.914Z,13.23
2018-10-06T13:42:23.215Z,13.57
2018-10-06T13:44:52.457Z,14.53
2018-10-06T13:47:23.442Z,14.53
2018-10-06T13:49:52.370Z,17.13
2018-10-06T13:52:28.880Z,15.23
2018-10-06T13:54:58.197Z,13.60
2018-10-06T13:57:27.401Z,14.73
2018-10-06T13:59:56.886Z,12.80
2018-10-06T14:02:26.518Z,14.33
2018-10-06T14:04:55.599Z,14.90
2018-10-06T14:07:26.577Z,14.17
2018-10-06T14:09:56.947Z,12.47
2018-10-06T14:12:27.067Z,12.00
2018-10-06T14:14:56.659Z,12.47
2018-10-06T14:17:39.095Z,11.90
2018-10-06T14:20:08.414Z,15.77
2018-10-06T14:22:37.542Z,30.00
2018-10-06T14:25:06.917Z,41.53
2018-10-06T14:27:36.279Z,39.70
2018-10-06T14:30:05.241Z,38.40
2018-10-06T14:32:34.372Z,43.97
2018-10-06T14:35:09.205Z,44.93
2018-10-06T14:37:39.533Z,41.95
2018-10-06T14:40:08.753Z,43.80
2018-10-06T14:42:37.588Z,40.17
2018-10-06T14:45:14.265Z,42.30
2018-10-06T14:47:43.245Z,41.10
2018-10-06T14:50:11.956Z,41.30
2018-10-06T14:52:41.261Z,38.87
2018-10-06T14:55:11.499Z,40.63
2018-10-06T14:57:42.010Z,40.37
2018-10-06T15:00:12.626Z,39.40
2018-10-06T15:02:41.632Z,37.97
2018-10-06T15:05:14.970Z,36.40
2018-10-06T15:07:48.735Z,37.90
2018-10-06T15:10:18.913Z,39.97
2018-10-06T15:12:48.073Z,42.97
2018-10-06T15:15:16.747Z,39.33
2018-10-06T15:17:48.703Z,43.00
2018-10-06T15:20:19.173Z,39.73
2018-10-06T15:22:51.678Z,42.63
2018-10-06T15:25:20.476Z,43.30
2018-10-06T15:27:49.623Z,38.93
2018-10-06T15:30:20.225Z,42.47
2018-10-06T15:32:52.363Z,72.33
2018-10-06T15:35:24.971Z,48.43
2018-10-06T15:37:55.027Z,36.90
2018-10-06T15:40:35.595Z,37.27
2018-10-06T15:43:04.471Z,38.80
2018-10-06T15:45:33.265Z,39.27
2018-10-06T15:48:02.760Z,37.80
2018-10-06T15:50:35.541Z,37.55
2018-10-06T15:53:04.404Z,34.27
2018-10-06T15:55:35.670Z,34.20
2018-10-06T15:58:04.716Z,37.87
2018-10-06T16:00:33.680Z,32.30
2018-10-06T16:03:03.279Z,35.60
2018-10-06T16:05:37.941Z,33.63
2018-10-06T16:08:07.315Z,31.93
2018-10-06T16:10:36.765Z,30.53
2018-10-06T16:13:06.348Z,38.10
2018-10-06T16:15:35.625Z,33.73
2018-10-06T16:18:05.241Z,34.20
2018-10-06T16:20:38.344Z,30.54
2018-10-06T16:23:07.519Z,29.97
2018-10-06T16:25:37.304Z,28.70
2018-10-06T16:28:06.572Z,30.80
2018-10-06T16:30:36.408Z,32.83
2018-10-06T16:33:07.145Z,31.17
2018-10-06T16:35:35.926Z,30.57
2018-10-06T16:38:05.139Z,32.70
2018-10-06T16:40:41.989Z,33.77
2018-10-06T16:43:11.027Z,31.77
2018-10-06T16:45:42.149Z,33.40
2018-10-06T16:48:14.042Z,34.60
2018-10-06T16:50:42.943Z,27.30
2018-10-06T16:53:12.859Z,30.23
2018-10-06T16:55:41.789Z,28.73
2018-10-06T16:58:13.651Z,31.13
2018-10-06T17:00:42.609Z,35.20
2018-10-06T17:03:11.822Z,33.53
2018-10-06T17:05:44.001Z,29.87
2018-10-06T17:08:12.830Z,38.37
2018-10-06T17:10:43.271Z,40.03
2018-10-06T17:13:12.577Z,33.93
2018-10-06T17:15:41.660Z,33.97
2018-10-06T17:18:11.100Z,28.60
2018-10-06T17:20:41.680Z,35.17
2018-10-06T17:23:15.515Z,35.63
2018-10-06T17:25:44.651Z,36.53
2018-10-06T17:28:15.328Z,39.10
2018-10-06T17:30:51.660Z,38.60
2018-10-06T17:33:26.460Z,42.93
2018-10-06T17:35:56.018Z,42.27
2018-10-06T17:38:34.449Z,43.35
2018-10-06T17:41:06.508Z,42.73
2018-10-06T17:43:38.534Z,37.43
2018-10-06T17:46:08.028Z,38.80
2018-10-06T17:48:42.275Z,43.63
2018-10-06T17:51:13.433Z,43.67
2018-10-06T17:53:46.603Z,43.07
2018-10-06T17:56:16.042Z,47.23
2018-10-06T17:58:47.706Z,40.67
2018-10-06T18:01:18.636Z,42.83
2018-10-06T18:03:49.997Z,38.57
2018-10-06T18:06:20.163Z,33.63
2018-10-06T18:08:51.667Z,36.63
2018-10-06T18:11:24.623Z,33.53
2018-10-06T18:13:54.060Z,33.70
2018-10-06T18:16:24.926Z,30.47
2018-10-06T18:18:54.831Z,28.60
2018-10-06T18:21:25.521Z,31.52
2018-10-06T18:23:58.380Z,28.07
2018-10-06T18:26:30.033Z,25.77
2018-10-06T18:29:02.468Z,28.63
2018-10-06T18:31:33.101Z,25.03
2018-10-06T18:34:07.906Z,24.63
2018-10-06T18:36:41.413Z,24.87
2018-10-06T18:39:11.991Z,27.60
2018-10-06T18:41:41.319Z,24.90
2018-10-06T18:44:11.211Z,25.10
2018-10-06T18:46:40.774Z,29.43
2018-10-06T18:49:10.556Z,26.50
2018-10-06T18:51:41.882Z,25.40
2018-10-06T18:54:10.608Z,25.63
2018-10-06T18:56:41.211Z,26.70
2018-10-06T18:59:11.561Z,26.77
2018-10-06T19:01:40.669Z,31.83
2018-10-06T19:04:10.962Z,25.47
2018-10-06T19:06:42.472Z,29.90
2018-10-06T19:09:12.342Z,30.37
2018-10-06T19:11:43.440Z,28.53
2018-10-06T19:14:14.908Z,26.73
2018-10-06T19:16:44.751Z,22.40
2018-10-06T19:19:13.655Z,28.83
2018-10-06T19:21:43.518Z,25.60
2018-10-06T19:24:13.890Z,21.97
2018-10-06T19:26:45.341Z,28.07
2018-10-06T19:29:15.538Z,25.37
2018-10-06T19:31:46.968Z,21.30
2018-10-06T19:34:16.949Z,19.53
2018-10-06T19:36:47.368Z,17.77
2018-10-06T19:39:17.034Z,24.33
2018-10-06T19:41:47.684Z,14.67
2018-10-06T19:44:18.270Z,18.30
2018-10-06T19:46:48.574Z,21.67
2018-10-06T19:49:19.609Z,17.77
2018-10-06T19:51:50.781Z,22.07
2018-10-06T19:54:23.766Z,20.37
2018-10-06T19:56:54.543Z,21.00
2018-10-06T19:59:23.711Z,16.67
2018-10-06T20:01:54.419Z,17.27
2018-10-06T20:04:25.457Z,18.30
2018-10-06T20:06:55.048Z,23.90
2018-10-06T20:09:24.817Z,17.07
2018-10-06T20:11:54.596Z,17.93
2018-10-06T20:14:25.929Z,16.73
2018-10-06T20:16:56.395Z,19.07
2018-10-06T20:19:26.318Z,14.83
2018-10-06T20:21:59.003Z,15.80
2018-10-06T20:24:29.163Z,15.73
2018-10-06T20:26:59.336Z,15.07
2018-10-06T20:29:30.347Z,13.33
2018-10-06T20:31:59.992Z,14.13
2018-10-06T20:34:30.955Z,13.83
2018-10-06T20:37:00.304Z,12.37
2018-10-06T20:39:30.907Z,14.87
2018-10-06T20:42:01.042Z,14.40
2018-10-06T20:44:30.656Z,16.90
2018-10-06T20:47:01.479Z,15.57
2018-10-06T20:49:30.505Z,14.43
2018-10-06T20:51:59.431Z,13.70
2018-10-06T20:54:29.314Z,15.47
2018-10-06T20:56:58.384Z,17.20
2018-10-06T20:59:28.294Z,17.17
2018-10-06T21:01:57.821Z,13.03
2018-10-06T21:04:28.278Z,12.80
2018-10-06T21:06:59.301Z,14.17
2018-10-06T21:09:28.805Z,9.87
2018-10-06T21:11:58.699Z,11.77
2018-10-06T21:14:29.712Z,10.53
2018-10-06T21:16:58.193Z,11.80
2018-10-06T21:19:27.405Z,14.53
2018-10-06T21:21:58.969Z,10.63
2018-10-06T21:24:30.496Z,11.00
2018-10-06T21:27:00.278Z,11.83
2018-10-06T21:29:29.808Z,10.93
2018-10-06T21:31:58.803Z,11.57
2018-10-06T21:34:28.783Z,9.67
2018-10-06T21:36:58.730Z,14.63
2018-10-06T21:39:28.584Z,12.10
2018-10-06T21:41:57.448Z,11.67
2018-10-06T21:44:28.268Z,10.37
2018-10-06T21:46:57.058Z,12.23
2018-10-06T21:49:26.319Z,9.57
2018-10-06T21:51:56.417Z,10.67
2018-10-06T21:54:27.521Z,10.07
2018-10-06T21:56:56.330Z,10.33
2018-10-06T21:59:28.374Z,13.07
2018-10-06T22:01:58.411Z,8.53
2018-10-06T22:04:28.692Z,9.78
2018-10-06T22:06:58.649Z,7.73
2018-10-06T22:09:28.578Z,9.47
2018-10-06T22:12:00.989Z,10.80
2018-10-06T22:14:31.193Z,10.47
2018-10-06T22:17:01.137Z,11.43
2018-10-06T22:19:30.879Z,8.63
2018-10-06T22:22:00.555Z,8.87
2018-10-06T22:24:30.093Z,10.03
2018-10-06T22:27:00.722Z,10.73
2018-10-06T22:29:31.078Z,10.07
2018-10-06T22:32:01.005Z,8.90
2018-10-06T22:34:31.537Z,9.93
2018-10-06T22:37:01.259Z,12.03
2018-10-06T22:39:33.546Z,8.70
2018-10-06T22:42:03.078Z,11.40
2018-10-06T22:44:37.171Z,12.97
2018-10-06T22:47:06.194Z,12.60
2018-10-06T22:49:37.029Z,10.73
2018-10-06T22:52:08.708Z,9.23
2018-10-06T22:54:39.854Z,10.63
2018-10-06T22:57:09.817Z,6.90
2018-10-06T22:59:41.781Z,9.03
2018-10-06T23:02:13.217Z,9.20
2018-10-06T23:04:41.993Z,9.67
2018-10-06T23:07:13.286Z,10.80
2018-10-06T23:09:42.411Z,8.80
2018-10-06T23:12:13.756Z,12.03
2018-10-06T23:14:46.673Z,9.13
2018-10-06T23:17:17.065Z,10.83
2018-10-06T23:19:47.623Z,10.90
2018-10-06T23:22:18.352Z,8.60
2018-10-06T23:24:47.128Z,8.60
2018-10-06T23:27:18.756Z,8.90
2018-10-06T23:29:51.802Z,12.20
2018-10-06T23:32:22.183Z,10.73
2018-10-06T23:34:51.141Z,9.33
2018-10-06T23:37:21.714Z,8.90
2018-10-06T23:39:53.116Z,10.80
2018-10-06T23:42:22.188Z,11.67
2018-10-06T23:47:30.096Z,8.97
2018-10-06T23:50:00.625Z,9.10
2018-10-06T23:52:31.522Z,9.53
2018-10-06T23:55:03.423Z,9.57
2018-10-06T23:57:33.305Z,9.27
